Terminal Aerodrome Forecast
Issued by NWS Cleveland, OH

Home | Current Version | Previous Version | Graphics & Text | Print | Product List | Glossary On
Versions: 1 2 3 4 5 6 7 8 9 10 11 12 13 14 15 16 17 18 19
000
FTUS41 KCLE 170500
TAFMFD
TAF
KMFD 170534Z 1706/1806 22010KT P6SM SCT025 OVC040
     FM170800 22010KT 4SM BR SCT015 BKN025
      TEMPO 1710/1714 SCT009 BKN015 OVC025
     FM171500 21015G22KT P6SM BKN025
     FM171700 21015G25KT P6SM BKN050
     FM180100 26012KT P6SM VCSH OVC020=

USA.gov is the U.S. government's official web portal to all federal, state and local government web resources and services.